Hurlburt Field, FL

6:02 AM CDT on July 24, 2016 (GMT -0500)
Hurlburt | | Change Station

Elev 39 ft 30.43 °N, 86.69 °W | Updated 4 minutes ago

Mostly Cloudy
Mostly Cloudy
75 °F
Feels Like 75 °F
N
5
Wind Variable Wind from NNW

Today
High -- | Low -- °F
--% Chance of Precip.
Yesterday
High -- | Low -- °F
Precip. -- in
Pressure 29.99 in
Visibility 10.0 miles
Clouds Few 3900 ft
Scattered Clouds 11000 ft
Mostly Cloudy 16000 ft
Mostly Cloudy 18000 ft
Dew Point 72 °F
Humidity 91%
Rainfall 0.05 in
Snow Depth Not available.
6:00 AM 7:45 PM
Waning Gibbous, 77% visible
METAR KHRT 241058Z 33004KT 10SM FEW039 SCT110 BKN160 BKN180 24/22 A2998 RMK AO2A SLP154 P0005 T02380223
Pressure 29.99 in
Visibility 10.0 miles
Clouds Few 3900 ft
Scattered Clouds 11000 ft
Mostly Cloudy 16000 ft
Mostly Cloudy 18000 ft
Dew Point 72 °F
Humidity 91%
Rainfall 0.05 in
Snow Depth Not available.
6:00 AM 7:45 PM
Waning Gibbous, 77% visible
METAR KHRT 241058Z 33004KT 10SM FEW039 SCT110 BKN160 BKN180 24/22 A2998 RMK AO2A SLP154 P0005 T02380223

10-Day Weather Forecast

Almanac

Astronomy

Jul. 24, 2016 Rise Set
Actual Time
Civil Twilight
Nautical Twilight
Astronomical Twilight
Moon
Length of Visible Light
Length of Day
Tomorrow will be .
, % of the Moon is Illuminated

Today's Extremes

State Highs State Lows

Community

WunderPhotos

Upload Photos

1,927,047 photos uploaded!

WunderBlog® & News

Nearby

Air Quality

  Air Quality AQ Index Pollutant
Not available.

Snow Depth

Station Depth Elevation

Earthquake Activity

City Distance Mag. Time & Date
Minimum magnitude displayed is 2.5.

Coastal Water Temperatures

Place Temperature

Stations

Nearby Weather Stations

Station Location Temp. Windchill Dew Point Humidity Wind Precip. Elev Updated Type
                   

Watches & Warnings

There are currently no watches in effect.